Time;durP1;ratioP1;P1;durP2;ratioP2;P2;SDS_P1;SDS_P2;PMS_P1;PMS_P2;Temp;Humidity;BMP_temperature;BMP_pressure;BME280_temperature;BME280_humidity;BME280_pressure;Samples;Min_cycle;Max_cycle;Signal;HPM_P1;HPM_P2
2020/12/03 00:02:16;;;;;;;79.20;23.20;;;2.40;96.00;;;;;;5075991;28;20291;-80
2020/12/03 00:04:46;;;;;;;73.40;22.60;;;2.30;95.90;;;;;;5076486;28;20176;-80
2020/12/03 00:07:13;;;;;;;70.35;24.02;;;2.40;96.30;;;;;;5076801;28;20227;-80
2020/12/03 00:09:44;;;;;;;80.72;24.10;;;2.40;96.10;;;;;;5076285;28;20267;-81
2020/12/03 00:12:11;;;;;;;82.28;25.38;;;2.40;96.10;;;;;;5076766;28;20172;-80
2020/12/03 00:14:37;;;;;;;82.40;24.52;;;2.40;96.30;;;;;;5076089;28;20172;-80
2020/12/03 00:17:03;;;;;;;67.80;22.17;;;2.40;96.30;;;;;;5076545;28;20194;-81
2020/12/03 00:19:28;;;;;;;70.10;22.80;;;2.40;96.60;;;;;;5075840;28;20978;-80
2020/12/03 00:22:00;;;;;;;68.90;23.33;;;2.40;96.50;;;;;;5075557;28;20758;-80
2020/12/03 00:24:30;;;;;;;68.70;23.52;;;2.50;96.30;;;;;;5076087;28;20403;-81
2020/12/03 00:26:56;;;;;;;56.80;20.33;;;2.50;95.70;;;;;;5075831;28;20199;-80
2020/12/03 00:29:23;;;;;;;64.60;21.92;;;2.50;95.70;;;;;;5075840;28;20177;-80
2020/12/03 00:31:50;;;;;;;75.13;23.40;;;2.50;95.50;;;;;;5076260;28;20207;-81
2020/12/03 00:34:17;;;;;;;78.28;25.42;;;2.50;95.60;;;;;;5076043;28;20267;-80
2020/12/03 00:36:43;;;;;;;67.47;22.42;;;2.50;95.50;;;;;;5077590;28;20180;-80
2020/12/03 00:39:12;;;;;;;72.57;24.05;;;2.60;95.40;;;;;;5076016;28;20169;-80
2020/12/03 00:41:38;;;;;;;69.78;23.42;;;2.50;95.70;;;;;;5075753;28;20602;-80
2020/12/03 00:44:04;;;;;;;85.03;27.25;;;2.50;95.60;;;;;;5076705;28;20204;-81
2020/12/03 00:46:34;;;;;;;69.18;23.27;;;2.60;95.60;;;;;;5076251;28;20204;-81
2020/12/03 00:49:00;;;;;;;86.20;25.73;;;2.50;95.50;;;;;;5080582;28;20200;-80
2020/12/03 00:51:26;;;;;;;72.85;23.02;;;2.50;95.20;;;;;;5079521;28;20655;-81
2020/12/03 00:53:52;;;;;;;68.77;22.40;;;2.60;95.30;;;;;;5079107;28;20204;-80
2020/12/03 00:56:18;;;;;;;88.37;24.10;;;2.60;95.30;;;;;;5079550;28;20413;-80
2020/12/03 00:58:47;;;;;;;71.30;24.30;;;2.60;95.20;;;;;;5079583;28;20415;-81
2020/12/03 01:01:15;;;;;;;80.80;23.15;;;2.60;95.30;;;;;;5079827;28;20226;-80
2020/12/03 01:03:41;;;;;;;75.50;23.55;;;2.60;95.40;;;;;;5079475;28;20617;-81
2020/12/03 01:06:07;;;;;;;81.15;23.45;;;2.50;96.00;;;;;;5079949;28;20249;-80
2020/12/03 01:08:33;;;;;;;70.00;23.38;;;2.50;95.80;;;;;;5079382;28;20175;-80
2020/12/03 01:10:59;;;;;;;75.70;23.40;;;2.60;95.40;;;;;;5079084;28;20173;-81
2020/12/03 01:13:25;;;;;;;67.57;22.53;;;2.60;95.20;;;;;;5079697;28;20400;-80
2020/12/03 01:15:51;;;;;;;70.53;23.00;;;2.60;95.20;;;;;;5078965;28;20972;-81
2020/12/03 01:18:17;;;;;;;68.75;23.00;;;2.60;94.90;;;;;;5079516;28;20932;-80
2020/12/03 01:20:43;;;;;;;76.60;21.05;;;2.70;95.10;;;;;;5080572;28;20167;-80
2020/12/03 01:23:09;;;;;;;65.40;22.23;;;2.70;95.00;;;;;;5079138;28;20204;-80
2020/12/03 01:25:35;;;;;;;71.13;24.90;;;2.70;95.00;;;;;;5079092;28;20275;-81
2020/12/03 01:28:01;;;;;;;63.95;20.88;;;2.70;95.20;;;;;;5078548;28;20427;-81
2020/12/03 01:30:28;;;;;;;75.53;21.92;;;2.80;95.10;;;;;;5078821;28;20701;-80
2020/12/03 01:32:53;;;;;;;60.05;21.15;;;2.70;94.70;;;;;;5078747;28;20287;-80
2020/12/03 01:35:20;;;;;;;56.10;20.50;;;2.70;95.00;;;;;;5079328;28;20196;-81
2020/12/03 01:37:50;;;;;;;70.05;22.52;;;2.70;95.10;;;;;;5079299;28;20870;-80
2020/12/03 01:40:23;;;;;;;73.10;23.65;;;2.70;95.10;;;;;;5079183;28;20168;-80
2020/12/03 01:42:49;;;;;;;73.28;24.13;;;2.70;95.30;;;;;;5078605;28;20176;-81
2020/12/03 01:45:54;;;;;;;60.25;22.02;;;2.80;95.40;;;;;;5079390;28;20173;-80
2020/12/03 01:48:28;;;;;;;79.32;23.90;;;2.80;95.50;;;;;;5078361;28;20183;-80
2020/12/03 01:50:54;;;;;;;79.03;23.15;;;2.80;95.40;;;;;;5078832;28;20164;-81
2020/12/03 01:53:21;;;;;;;73.15;22.83;;;2.70;95.60;;;;;;5078439;28;20665;-81
2020/12/03 01:55:51;;;;;;;77.40;25.63;;;2.70;95.50;;;;;;5078478;28;20546;-81
2020/12/03 01:58:43;;;;;;;76.93;22.73;;;2.70;95.70;;;;;;5069038;28;20165;-81
2020/12/03 02:01:10;;;;;;;91.97;26.85;;;2.70;95.80;;;;;;5069417;28;20647;-81
2020/12/03 02:03:46;;;;;;;75.93;24.17;;;2.70;95.80;;;;;;5069565;28;20165;-81
2020/12/03 02:06:16;;;;;;;74.13;24.08;;;2.70;95.60;;;;;;5066312;28;20260;-81
2020/12/03 02:08:42;;;;;;;72.28;22.30;;;2.70;96.00;;;;;;5066815;28;20176;-81
2020/12/03 02:11:07;;;;;;;66.37;23.40;;;2.70;95.80;;;;;;5075961;28;20188;-81
2020/12/03 02:13:33;;;;;;;79.70;24.20;;;2.70;95.50;;;;;;5065928;28;20193;-81
2020/12/03 02:15:59;;;;;;;75.63;24.07;;;2.70;95.40;;;;;;5057986;28;20413;-81
2020/12/03 02:18:25;;;;;;;74.30;25.67;;;2.60;95.80;;;;;;5057472;28;20169;-81
2020/12/03 02:20:50;;;;;;;82.80;25.10;;;2.50;95.60;;;;;;5056948;28;20443;-81
2020/12/03 02:23:19;;;;;;;95.77;28.57;;;2.50;95.80;;;;;;5057664;28;20416;-81
2020/12/03 02:25:45;;;;;;;75.15;24.30;;;2.30;96.10;;;;;;5056240;28;20174;-81
2020/12/03 02:28:11;;;;;;;66.95;23.42;;;2.20;96.50;;;;;;5057451;28;20190;-81
2020/12/03 02:30:37;;;;;;;80.70;24.55;;;2.20;96.70;;;;;;5057219;28;20170;-81
2020/12/03 02:33:03;;;;;;;71.83;23.50;;;2.20;97.00;;;;;;5056845;28;20212;-81
2020/12/03 02:35:29;;;;;;;87.13;24.80;;;2.10;97.20;;;;;;5057146;28;20176;-81
2020/12/03 02:37:55;;;;;;;73.25;23.80;;;2.00;97.30;;;;;;5057811;28;20469;-81
2020/12/03 02:40:21;;;;;;;88.18;25.17;;;2.00;97.50;;;;;;5057368;28;20672;-81
2020/12/03 02:42:46;;;;;;;85.27;23.53;;;2.10;97.20;;;;;;5057705;28;20173;-81
2020/12/03 02:45:12;;;;;;;71.27;25.40;;;2.10;97.30;;;;;;5058491;28;20923;-81
2020/12/03 02:47:38;;;;;;;84.73;24.87;;;2.00;97.20;;;;;;5056986;28;20435;-81
2020/12/03 02:50:06;;;;;;;99.87;25.73;;;2.00;97.30;;;;;;5056910;28;20412;-81
2020/12/03 02:52:31;;;;;;;87.55;27.10;;;1.90;97.40;;;;;;5056601;28;20458;-81
2020/12/03 02:54:57;;;;;;;76.60;26.77;;;1.80;97.70;;;;;;5064134;23;20221;-85
2020/12/03 03:00:45;;;;;;;89.97;25.13;;;1.70;97.90;;;;;;5035911;28;20463;-86
2020/12/03 03:03:11;;;;;;;81.57;26.37;;;1.70;98.00;;;;;;5035336;28;20652;-86
2020/12/03 03:05:37;;;;;;;84.17;26.43;;;1.60;97.90;;;;;;5036162;28;20181;-86
2020/12/03 03:08:02;;;;;;;94.70;26.43;;;1.70;98.20;;;;;;5035639;28;20563;-86
2020/12/03 03:10:28;;;;;;;95.13;25.03;;;1.60;97.80;;;;;;5034804;28;20409;-86
2020/12/03 03:12:54;;;;;;;87.67;25.37;;;1.60;97.90;;;;;;5035361;28;20448;-86
2020/12/03 03:15:20;;;;;;;105.23;27.03;;;1.50;97.40;;;;;;5035649;28;20409;-86
2020/12/03 03:17:46;;;;;;;90.97;29.73;;;1.50;97.60;;;;;;5035253;28;20277;-86
2020/12/03 03:20:13;;;;;;;82.15;25.92;;;1.50;97.60;;;;;;5035475;28;20174;-86
2020/12/03 03:22:40;;;;;;;81.43;26.25;;;1.50;97.60;;;;;;5035424;28;20182;-86
2020/12/03 03:25:07;;;;;;;74.88;24.20;;;1.50;97.70;;;;;;5035719;28;20515;-86
2020/12/03 03:27:33;;;;;;;83.10;25.48;;;1.50;97.60;;;;;;5035501;28;20279;-86
2020/12/03 03:29:58;;;;;;;82.93;25.70;;;1.50;97.90;;;;;;5036001;28;20174;-86
2020/12/03 03:32:24;;;;;;;90.70;26.63;;;1.50;97.80;;;;;;5034719;28;20551;-86
2020/12/03 03:34:50;;;;;;;83.93;25.73;;;1.60;97.80;;;;;;5035308;28;20663;-86
2020/12/03 03:37:16;;;;;;;84.27;25.63;;;1.60;97.30;;;;;;5035759;28;20194;-86
2020/12/03 03:39:41;;;;;;;75.50;25.70;;;1.50;97.40;;;;;;5035552;28;20411;-86
2020/12/03 03:42:07;;;;;;;87.53;31.13;;;1.60;97.50;;;;;;5035126;28;20409;-86
2020/12/03 03:44:33;;;;;;;82.60;29.03;;;1.60;97.30;;;;;;5035400;28;20912;-86
2020/12/03 03:46:59;;;;;;;76.87;24.70;;;1.60;97.50;;;;;;5035564;28;20190;-86
2020/12/03 03:49:24;;;;;;;74.33;25.60;;;1.70;97.10;;;;;;5035857;28;20416;-86
2020/12/03 03:51:50;;;;;;;76.00;25.30;;;1.70;96.90;;;;;;5035095;28;20416;-86
2020/12/03 03:54:16;;;;;;;88.07;25.77;;;1.80;96.80;;;;;;5035037;28;20643;-86
2020/12/03 03:56:42;;;;;;;91.43;27.30;;;1.70;96.90;;;;;;5035073;28;20507;-86
2020/12/03 03:59:07;;;;;;;74.07;25.53;;;1.70;97.10;;;;;;5035114;28;20270;-86
2020/12/03 04:01:33;;;;;;;90.77;26.30;;;1.70;96.90;;;;;;5035366;28;20413;-86
2020/12/03 04:03:59;;;;;;;89.07;24.53;;;1.70;96.90;;;;;;5037190;28;20170;-86
2020/12/03 04:06:24;;;;;;;83.73;24.00;;;1.70;97.10;;;;;;5035302;28;20284;-86
2020/12/03 04:08:50;;;;;;;88.27;27.07;;;1.70;96.90;;;;;;5035875;28;20285;-86
2020/12/03 04:11:16;;;;;;;80.53;30.27;;;1.70;97.00;;;;;;5035371;28;20412;-86
2020/12/03 04:13:43;;;;;;;73.90;27.20;;;1.80;96.80;;;;;;5035811;28;20452;-86
2020/12/03 04:16:10;;;;;;;82.22;25.88;;;1.80;96.50;;;;;;5036170;28;20503;-86
2020/12/03 04:18:36;;;;;;;91.70;28.00;;;1.70;96.80;;;;;;5035836;28;20166;-86
2020/12/03 04:21:05;;;;;;;77.53;25.98;;;1.80;97.00;;;;;;5035537;28;20170;-86
2020/12/03 04:23:31;;;;;;;89.63;28.20;;;1.80;97.00;;;;;;5038837;28;20284;-86
2020/12/03 04:25:57;;;;;;;82.07;25.30;;;1.90;96.80;;;;;;5038732;28;20251;-87
2020/12/03 04:28:22;;;;;;;74.73;24.80;;;1.90;96.70;;;;;;5036197;28;20417;-88
2020/12/03 04:30:48;;;;;;;95.07;25.57;;;2.00;96.60;;;;;;5037620;28;20174;-88
2020/12/03 04:33:14;;;;;;;87.72;25.27;;;2.10;96.30;;;;;;5036476;28;20232;-88
2020/12/03 04:35:40;;;;;;;78.20;24.83;;;2.10;96.00;;;;;;5036261;28;20170;-90
2020/12/03 04:38:08;;;;;;;82.60;26.07;;;2.10;95.70;;;;;;5036285;28;20169;-89
2020/12/03 04:40:36;;;;;;;79.15;25.00;;;2.10;95.70;;;;;;5036578;28;20417;-88
2020/12/03 04:43:40;;;;;;;85.63;26.42;;;2.20;95.70;;;;;;5035777;28;20174;-88
2020/12/03 04:46:28;;;;;;;85.95;26.63;;;2.20;95.70;;;;;;5033815;28;20221;-88
2020/12/03 04:49:24;;;;;;;71.10;25.17;;;2.30;95.50;;;;;;5036414;28;20177;-87
2020/12/03 04:52:05;;;;;;;75.43;26.33;;;2.30;95.60;;;;;;5035992;28;20189;-89
2020/12/03 04:54:45;;;;;;;80.05;26.35;;;2.30;95.70;;;;;;5035643;28;20543;-89
2020/12/03 04:57:55;;;;;;;73.18;23.08;;;2.40;95.50;;;;;;5036490;28;20198;-88
2020/12/03 05:00:41;;;;;;;82.53;24.25;;;2.40;95.80;;;;;;5017184;28;20598;-87
2020/12/03 05:03:47;;;;;;;77.25;23.75;;;2.40;95.90;;;;;;5035818;28;20173;-88
2020/12/03 05:06:33;;;;;;;77.38;23.17;;;2.40;95.80;;;;;;5036051;28;20197;-87
2020/12/03 05:09:02;;;;;;;77.35;22.67;;;2.40;95.70;;;;;;5035433;28;20181;-87
2020/12/03 05:11:38;;;;;;;82.05;24.65;;;2.50;95.60;;;;;;5038384;28;20174;-85
2020/12/03 05:14:30;;;;;;;65.00;23.50;;;2.50;95.30;;;;;;5038319;28;20259;-85
2020/12/03 05:17:04;;;;;;;62.88;22.73;;;2.60;95.20;;;;;;5037923;28;20204;-86
2020/12/03 05:19:41;;;;;;;69.03;22.73;;;2.60;95.10;;;;;;5038549;28;20185;-86
2020/12/03 05:22:17;;;;;;;73.60;23.92;;;2.60;94.90;;;;;;5037036;28;20248;-85
2020/12/03 05:24:43;;;;;;;61.33;23.95;;;2.60;95.00;;;;;;5036379;28;20162;-87
2020/12/03 05:27:23;;;;;;;70.13;22.23;;;2.70;95.10;;;;;;5036913;28;20201;-86
2020/12/03 05:29:49;;;;;;;54.80;21.83;;;2.70;95.00;;;;;;5036282;28;20491;-88
2020/12/03 05:32:15;;;;;;;64.97;23.08;;;2.70;95.10;;;;;;5037524;28;20177;-87
2020/12/03 05:34:41;;;;;;;79.65;22.38;;;2.80;95.00;;;;;;5036033;28;20192;-86
2020/12/03 05:37:16;;;;;;;62.25;23.10;;;2.80;94.70;;;;;;5037850;28;20731;-87
2020/12/03 05:39:44;;;;;;;61.28;22.52;;;2.80;94.70;;;;;;5037809;28;20178;-87
2020/12/03 05:42:12;;;;;;;64.30;21.50;;;2.80;95.10;;;;;;5038163;28;20177;-86
2020/12/03 05:44:52;;;;;;;56.22;19.77;;;2.80;94.60;;;;;;5037482;28;20220;-87
2020/12/03 05:47:24;;;;;;;65.47;20.73;;;2.70;94.50;;;;;;5037090;28;20193;-86
2020/12/03 05:49:55;;;;;;;55.40;18.63;;;2.70;94.50;;;;;;5037304;28;20170;-87
2020/12/03 05:52:24;;;;;;;54.35;19.08;;;2.70;94.50;;;;;;5036933;28;20190;-87
2020/12/03 05:55:12;;;;;;;66.20;18.75;;;2.70;94.70;;;;;;5036842;28;20677;-86
2020/12/03 05:57:41;;;;;;;61.83;21.33;;;2.70;94.80;;;;;;5037462;28;20246;-86
2020/12/03 06:00:27;;;;;;;64.70;21.35;;;2.70;95.00;;;;;;5037075;28;20170;-86
2020/12/03 06:03:07;;;;;;;63.65;23.30;;;2.60;95.20;;;;;;5037257;28;20654;-86
2020/12/03 06:06:01;;;;;;;60.63;19.90;;;2.60;95.30;;;;;;5038449;28;20169;-86
2020/12/03 06:08:48;;;;;;;68.20;24.83;;;2.60;95.20;;;;;;5038061;28;20174;-86
2020/12/03 06:11:14;;;;;;;72.97;24.27;;;2.60;95.20;;;;;;5038911;28;20709;-86
2020/12/03 06:13:58;;;;;;;56.90;21.17;;;2.60;95.70;;;;;;5038179;28;20229;-86
2020/12/03 06:16:40;;;;;;;52.45;20.73;;;2.60;95.60;;;;;;5038055;28;20198;-86
2020/12/03 06:19:23;;;;;;;49.75;18.85;;;2.70;95.50;;;;;;5038385;28;20173;-87
2020/12/03 06:22:11;;;;;;;43.10;15.68;;;2.70;95.10;;;;;;5037588;28;20173;-87
2020/12/03 06:25:18;;;;;;;54.55;18.55;;;2.80;95.20;;;;;;5038404;28;20181;-87
2020/12/03 06:27:46;;;;;;;39.17;16.60;;;2.80;95.00;;;;;;4997768;28;20663;-86
2020/12/03 06:30:31;;;;;;;49.05;17.13;;;2.80;94.70;;;;;;5026184;28;20189;-86
2020/12/03 06:33:28;;;;;;;47.50;17.58;;;2.80;94.30;;;;;;5037912;28;20205;-87
2020/12/03 06:36:13;;;;;;;41.17;14.23;;;2.90;94.50;;;;;;5037359;28;20174;-86
2020/12/03 06:39:33;;;;;;;40.67;14.27;;;2.80;94.00;;;;;;5037114;28;20154;-87
2020/12/03 06:42:26;;;;;;;46.20;17.38;;;2.80;94.10;;;;;;4996304;28;20182;-87
2020/12/03 06:45:17;;;;;;;45.05;13.57;;;2.90;94.30;;;;;;5036493;28;20311;-86
2020/12/03 06:47:52;;;;;;;39.30;16.60;;;2.90;94.60;;;;;;5037191;28;20208;-86
2020/12/03 06:50:38;;;;;;;40.45;16.58;;;2.90;94.30;;;;;;5037448;28;20181;-86
2020/12/03 06:53:43;;;;;;;53.17;16.13;;;2.90;94.50;;;;;;5037735;28;20193;-86
2020/12/03 06:56:45;;;;;;;37.97;15.43;;;2.90;94.00;;;;;;5035834;28;20209;-86
2020/12/03 06:59:51;;;;;;;34.17;14.23;;;2.90;94.20;;;;;;5036743;28;20170;-86
2020/12/03 07:02:49;;;;;;;36.22;14.48;;;3.00;94.30;;;;;;5037764;28;20158;-86
2020/12/03 07:05:30;;;;;;;42.42;14.45;;;3.00;94.30;;;;;;5019825;28;20218;-86
2020/12/03 07:08:14;;;;;;;53.70;17.70;;;3.00;94.30;;;;;;5037186;28;20190;-86
2020/12/03 07:10:42;;;;;;;43.40;15.38;;;3.10;94.10;;;;;;5037660;28;20161;-86
2020/12/03 07:13:21;;;;;;;51.45;18.23;;;3.10;94.40;;;;;;5021105;28;20221;-86
2020/12/03 07:16:21;;;;;;;40.45;15.88;;;3.20;94.10;;;;;;5037333;28;20551;-86
2020/12/03 07:19:16;;;;;;;35.92;14.50;;;3.20;94.30;;;;;;5037016;28;20166;-86
2020/12/03 07:22:11;;;;;;;46.17;16.65;;;3.20;94.30;;;;;;5037130;28;20181;-86
2020/12/03 07:24:40;;;;;;;63.20;17.95;;;3.20;94.40;;;;;;5037074;28;20182;-86
2020/12/03 07:27:10;;;;;;;50.95;18.27;;;3.20;94.50;;;;;;5036851;28;20272;-86
2020/12/03 07:30:00;;;;;;;64.32;20.77;;;3.30;94.40;;;;;;5036495;28;20699;-85
2020/12/03 07:32:31;;;;;;;62.15;20.33;;;3.20;94.30;;;;;;5035782;28;20173;-86
2020/12/03 07:35:28;;;;;;;61.22;19.50;;;3.20;94.40;;;;;;5035965;28;20174;-86
2020/12/03 07:38:14;;;;;;;58.40;22.42;;;3.20;94.10;;;;;;5035727;28;20688;-86
2020/12/03 07:40:40;;;;;;;59.40;21.65;;;3.20;94.30;;;;;;5035224;28;20166;-86
2020/12/03 07:43:35;;;;;;;66.93;21.73;;;3.10;94.20;;;;;;5035265;28;20220;-86
2020/12/03 07:46:02;;;;;;;69.32;23.83;;;3.00;94.50;;;;;;5035687;28;20201;-86
2020/12/03 07:48:31;;;;;;;77.05;22.55;;;3.00;94.40;;;;;;5035121;28;20630;-86
2020/12/03 07:51:03;;;;;;;62.33;21.73;;;3.00;94.40;;;;;;5034242;28;20174;-86
2020/12/03 07:53:30;;;;;;;51.47;19.35;;;3.10;94.50;;;;;;5034852;28;20229;-87
2020/12/03 07:55:56;;;;;;;53.20;20.10;;;3.10;94.30;;;;;;5034610;28;20244;-86
2020/12/03 07:58:41;;;;;;;60.53;18.05;;;3.10;94.40;;;;;;5037990;28;20170;-85
2020/12/03 08:01:26;;;;;;;53.67;18.98;;;3.20;94.40;;;;;;5039197;28;20200;-86
2020/12/03 08:03:56;;;;;;;56.55;19.95;;;3.20;94.50;;;;;;5038976;28;20256;-86
2020/12/03 08:06:23;;;;;;;49.00;17.77;;;3.20;94.50;;;;;;5038282;28;20196;-86
2020/12/03 08:09:10;;;;;;;62.10;19.25;;;3.30;94.10;;;;;;5038601;28;20169;-86
2020/12/03 08:11:57;;;;;;;44.88;17.13;;;3.40;94.00;;;;;;5037916;28;20173;-86
2020/12/03 08:14:35;;;;;;;49.40;17.15;;;3.40;93.90;;;;;;5038347;28;20208;-86
2020/12/03 08:17:04;;;;;;;42.78;15.98;;;3.50;93.90;;;;;;5037851;28;20240;-86
2020/12/03 08:19:37;;;;;;;52.92;17.33;;;3.50;93.40;;;;;;5038353;28;20180;-87
2020/12/03 08:22:23;;;;;;;50.75;17.90;;;3.50;92.90;;;;;;5038328;28;20173;-86
2020/12/03 08:24:59;;;;;;;58.97;20.30;;;3.60;92.80;;;;;;5038299;28;20173;-86
2020/12/03 08:27:25;;;;;;;56.60;19.63;;;3.60;92.80;;;;;;5038439;28;20201;-86
2020/12/03 08:29:50;;;;;;;46.10;15.73;;;3.50;92.80;;;;;;5037749;28;20261;-86
2020/12/03 08:32:16;;;;;;;61.33;20.77;;;3.50;92.50;;;;;;5037892;28;20195;-86
2020/12/03 08:34:43;;;;;;;41.10;16.40;;;3.50;92.20;;;;;;5038797;28;20185;-86
2020/12/03 08:37:22;;;;;;;30.02;13.43;;;3.40;92.20;;;;;;5038952;28;20190;-86
2020/12/03 08:39:53;;;;;;;32.13;12.95;;;3.40;91.20;;;;;;5037627;28;20169;-86
2020/12/03 08:42:20;;;;;;;33.17;13.07;;;3.50;91.80;;;;;;5038247;28;20170;-86
2020/12/03 08:44:47;;;;;;;29.25;12.48;;;3.50;91.60;;;;;;5038128;28;20170;-86
2020/12/03 08:47:42;;;;;;;31.38;13.82;;;3.60;91.20;;;;;;5038194;28;20252;-86
2020/12/03 08:50:15;;;;;;;33.05;13.13;;;3.60;91.00;;;;;;5038524;28;20228;-86
2020/12/03 08:52:42;;;;;;;29.23;12.38;;;3.60;90.80;;;;;;5037806;28;20697;-86
2020/12/03 08:55:09;;;;;;;36.95;14.98;;;3.60;90.70;;;;;;5116336;22;21604;-78
2020/12/03 08:57:43;;;;;;;31.52;11.57;;;3.60;90.20;;;;;;5101685;28;20196;-78
2020/12/03 09:00:14;;;;;;;32.35;14.43;;;3.60;90.20;;;;;;5102086;28;20179;-78
2020/12/03 09:02:41;;;;;;;32.33;13.98;;;3.60;90.50;;;;;;5101496;28;20179;-78
2020/12/03 09:05:07;;;;;;;35.22;12.30;;;3.60;89.90;;;;;;5101639;28;20263;-78
2020/12/03 09:07:40;;;;;;;31.08;13.15;;;3.60;90.30;;;;;;5101526;28;20199;-78
2020/12/03 09:10:08;;;;;;;35.88;13.98;;;3.70;90.10;;;;;;5101882;28;20176;-79
2020/12/03 09:12:36;;;;;;;33.83;14.30;;;3.70;90.20;;;;;;5101671;28;20182;-78
2020/12/03 09:15:05;;;;;;;38.65;15.75;;;3.80;90.60;;;;;;5102002;28;20611;-78
2020/12/03 09:17:33;;;;;;;41.60;16.80;;;3.90;90.70;;;;;;5101051;28;20333;-78
2020/12/03 09:20:08;;;;;;;46.65;17.33;;;3.90;90.70;;;;;;5100813;28;20171;-78
2020/12/03 09:22:35;;;;;;;51.67;19.52;;;3.90;90.90;;;;;;5100911;28;20187;-78
2020/12/03 09:25:05;;;;;;;47.20;17.88;;;3.80;91.00;;;;;;5100851;28;20179;-78
2020/12/03 09:27:33;;;;;;;65.43;19.58;;;3.90;91.70;;;;;;5100899;28;20203;-78
2020/12/03 09:30:03;;;;;;;52.00;20.35;;;3.80;91.40;;;;;;5100091;28;20175;-78
2020/12/03 09:32:31;;;;;;;49.38;18.40;;;3.90;91.20;;;;;;5100205;28;20172;-78
2020/12/03 09:34:57;;;;;;;52.20;18.20;;;3.90;91.40;;;;;;5100772;28;20271;-79
2020/12/03 09:37:23;;;;;;;63.08;19.08;;;4.00;91.40;;;;;;5100356;28;20256;-78
2020/12/03 09:39:50;;;;;;;50.80;18.63;;;4.00;91.30;;;;;;5100169;28;20175;-78
2020/12/03 09:42:17;;;;;;;45.33;19.00;;;4.00;90.60;;;;;;5099805;28;20224;-79
2020/12/03 09:44:48;;;;;;;46.97;17.73;;;4.00;91.30;;;;;;5099734;28;20172;-79
2020/12/03 09:47:16;;;;;;;50.25;19.83;;;4.00;91.80;;;;;;5099997;28;20569;-78
2020/12/03 09:49:46;;;;;;;52.58;20.48;;;4.00;91.20;;;;;;5100387;28;20172;-79
2020/12/03 09:52:13;;;;;;;61.33;19.10;;;4.00;91.20;;;;;;5100480;28;20172;-78
2020/12/03 09:54:43;;;;;;;53.42;18.33;;;4.20;90.90;;;;;;5100231;28;20209;-78
2020/12/03 09:57:10;;;;;;;49.63;17.20;;;4.10;90.90;;;;;;5100858;28;20208;-79
2020/12/03 09:59:39;;;;;;;39.63;17.08;;;4.20;90.80;;;;;;5098703;28;20225;-79
2020/12/03 10:02:11;;;;;;;38.95;16.83;;;4.20;90.10;;;;;;5096038;28;20171;-80
2020/12/03 10:05:05;;;;;;;36.97;14.43;;;4.30;89.80;;;;;;5095827;28;20172;-78
2020/12/03 10:07:58;;;;;;;34.63;13.57;;;4.30;88.80;;;;;;5095975;28;20199;-78
2020/12/03 10:10:38;;;;;;;42.90;16.05;;;4.30;89.50;;;;;;5097230;28;20639;-79
2020/12/03 10:13:07;;;;;;;40.35;16.15;;;4.40;89.60;;;;;;5096280;28;20271;-81
2020/12/03 10:15:48;;;;;;;35.83;14.13;;;4.40;89.10;;;;;;5096518;28;20167;-79
2020/12/03 10:18:34;;;;;;;41.30;15.90;;;4.40;88.80;;;;;;5095977;28;20159;-78
2020/12/03 10:21:00;;;;;;;37.33;14.70;;;4.40;88.00;;;;;;5095389;28;20172;-78
2020/12/03 10:23:39;;;;;;;37.53;13.73;;;4.40;88.10;;;;;;5098876;28;20198;-82
2020/12/03 10:26:31;;;;;;;42.90;15.55;;;4.50;88.50;;;;;;5096098;28;20198;-77
2020/12/03 10:29:37;;;;;;;28.80;14.30;;;4.50;88.70;;;;;;5094195;28;20207;-78
2020/12/03 10:32:33;;;;;;;35.00;14.05;;;4.50;87.80;;;;;;5095672;28;20522;-80
2020/12/03 10:35:02;;;;;;;34.50;12.77;;;4.50;87.40;;;;;;5085596;28;20183;-82
2020/12/03 10:37:34;;;;;;;30.85;14.05;;;4.50;86.30;;;;;;5095280;28;20287;-78
2020/12/03 10:40:13;;;;;;;31.35;12.63;;;4.60;87.30;;;;;;5096363;28;20168;-78
2020/12/03 10:42:46;;;;;;;36.63;14.07;;;4.60;86.30;;;;;;5098079;28;20171;-78
2020/12/03 10:45:25;;;;;;;28.50;12.73;;;4.60;85.80;;;;;;5097801;28;20171;-78
2020/12/03 10:48:12;;;;;;;48.80;15.85;;;4.60;85.80;;;;;;5097751;28;20188;-78
2020/12/03 10:50:47;;;;;;;26.45;13.32;;;4.60;86.40;;;;;;5098333;28;20178;-79
2020/12/03 10:53:17;;;;;;;26.08;12.95;;;4.70;85.20;;;;;;5098947;28;20195;-78
2020/12/03 10:55:43;;;;;;;31.98;13.35;;;4.80;84.90;;;;;;5097695;28;20190;-78
2020/12/03 10:58:11;;;;;;;39.45;13.50;;;4.80;85.50;;;;;;5098501;28;20691;-80
2020/12/03 11:00:39;;;;;;;25.13;12.32;;;4.90;84.80;;;;;;5098135;28;20267;-79
2020/12/03 11:03:11;;;;;;;27.23;13.98;;;5.00;85.10;;;;;;5098400;28;20178;-79
2020/12/03 11:05:45;;;;;;;35.55;13.70;;;5.20;84.10;;;;;;5100050;28;20168;-79
2020/12/03 11:08:11;;;;;;;31.33;14.05;;;5.20;83.90;;;;;;5099153;28;20179;-79
2020/12/03 11:10:40;;;;;;;28.85;13.15;;;5.30;83.10;;;;;;5099677;28;20745;-79
2020/12/03 11:13:07;;;;;;;27.70;11.98;;;5.40;82.30;;;;;;5099411;28;20200;-79
2020/12/03 11:15:33;;;;;;;31.08;10.30;;;5.40;81.90;;;;;;5099641;28;20237;-79
2020/12/03 11:18:03;;;;;;;26.95;10.30;;;5.40;81.90;;;;;;5098894;28;20196;-80
2020/12/03 11:20:38;;;;;;;24.05;10.38;;;5.40;80.10;;;;;;5098248;28;20193;-79
2020/12/03 11:23:26;;;;;;;18.50;8.48;;;5.20;79.80;;;;;;5098450;28;20536;-79
2020/12/03 11:25:56;;;;;;;18.02;9.98;;;5.20;79.10;;;;;;5097562;28;20203;-79
2020/12/03 11:28:30;;;;;;;25.42;9.05;;;5.10;79.40;;;;;;5097851;28;20183;-79
2020/12/03 11:31:01;;;;;;;20.58;9.75;;;5.20;79.20;;;;;;5094698;28;20194;-79
2020/12/03 11:33:28;;;;;;;16.70;7.80;;;5.20;78.10;;;;;;5094464;28;20192;-80
2020/12/03 11:36:03;;;;;;;17.33;9.27;;;5.20;77.80;;;;;;5095229;28;20179;-79
2020/12/03 11:38:31;;;;;;;18.05;8.57;;;5.20;77.40;;;;;;5095312;28;20586;-79
2020/12/03 11:40:59;;;;;;;19.67;9.25;;;5.30;78.10;;;;;;5095998;28;20171;-79
2020/12/03 11:48:42;;;;;;;17.00;7.50;;;5.40;77.30;;;;;;5099197;28;20163;-82
2020/12/03 11:51:24;;;;;;;16.88;8.25;;;5.40;76.70;;;;;;5097548;28;20187;-82
2020/12/03 11:54:01;;;;;;;24.75;9.18;;;5.40;76.70;;;;;;5097607;28;20194;-82
2020/12/03 11:56:32;;;;;;;19.20;8.13;;;5.50;77.30;;;;;;5096892;28;20227;-82
2020/12/03 11:59:31;;;;;;;14.82;6.82;;;5.40;78.10;;;;;;5096237;28;20175;-82
2020/12/03 12:02:05;;;;;;;15.63;7.30;;;5.40;77.60;;;;;;5064330;28;20172;-82
2020/12/03 12:04:58;;;;;;;13.80;7.15;;;5.30;77.70;;;;;;5096176;28;20235;-82
2020/12/03 12:07:54;;;;;;;17.42;7.65;;;5.30;76.00;;;;;;5096841;28;20274;-82
2020/12/03 12:10:28;;;;;;;15.25;6.55;;;5.20;77.40;;;;;;5097030;28;20194;-82
2020/12/03 12:12:54;;;;;;;16.88;7.07;;;5.20;77.70;;;;;;5096899;28;20570;-82
2020/12/03 12:15:19;;;;;;;10.93;6.17;;;5.20;76.70;;;;;;5096374;28;20175;-82
2020/12/03 12:17:45;;;;;;;22.20;7.40;;;5.20;77.30;;;;;;5097047;28;20184;-82
2020/12/03 12:20:13;;;;;;;18.90;8.13;;;5.20;78.00;;;;;;5097203;28;20437;-81
2020/12/03 12:22:39;;;;;;;16.67;7.57;;;5.30;77.40;;;;;;5096594;28;20172;-82
2020/12/03 12:25:06;;;;;;;18.23;8.02;;;5.40;77.60;;;;;;5096070;28;20172;-82
2020/12/03 12:27:32;;;;;;;15.38;6.57;;;5.40;76.60;;;;;;5096684;28;20188;-82
2020/12/03 12:29:58;;;;;;;17.10;7.60;;;5.40;76.20;;;;;;5097241;28;20689;-82
2020/12/03 12:32:23;;;;;;;15.40;7.10;;;5.50;76.90;;;;;;5096735;28;20843;-82
2020/12/03 12:34:49;;;;;;;15.63;7.40;;;5.50;76.70;;;;;;5096532;28;20210;-82
2020/12/03 12:37:15;;;;;;;11.63;5.43;;;5.50;76.20;;;;;;5096566;28;20647;-82
2020/12/03 12:39:41;;;;;;;23.47;7.10;;;5.50;76.70;;;;;;5094972;28;20631;-82
2020/12/03 12:42:08;;;;;;;13.83;7.20;;;5.50;76.30;;;;;;5094350;28;20175;-80
2020/12/03 12:44:34;;;;;;;12.30;6.55;;;5.50;76.40;;;;;;5097191;28;20168;-80
2020/12/03 12:47:00;;;;;;;20.00;7.88;;;5.40;75.50;;;;;;5098247;28;20191;-80
2020/12/03 12:49:27;;;;;;;19.35;6.53;;;5.40;76.90;;;;;;5099116;28;20202;-82
2020/12/03 12:51:53;;;;;;;12.63;6.25;;;5.30;77.40;;;;;;5100390;28;20647;-82
2020/12/03 12:54:21;;;;;;;13.15;6.05;;;5.30;76.70;;;;;;5099944;28;20702;-82
2020/12/03 12:56:47;;;;;;;12.70;6.30;;;5.20;76.60;;;;;;5099712;28;20335;-79
2020/12/03 12:59:16;;;;;;;17.45;6.65;;;5.30;76.70;;;;;;5098135;28;20171;-79
2020/12/03 13:01:46;;;;;;;17.95;7.50;;;5.30;77.30;;;;;;5097658;28;20635;-79
2020/12/03 13:04:13;;;;;;;17.70;5.95;;;5.30;76.20;;;;;;5097890;28;20172;-79
2020/12/03 13:06:40;;;;;;;12.32;6.55;;;5.30;76.60;;;;;;5098208;28;20713;-79
2020/12/03 13:09:07;;;;;;;15.13;6.20;;;5.30;76.90;;;;;;5098089;28;20233;-79
2020/12/03 13:11:33;;;;;;;14.70;6.13;;;5.30;77.30;;;;;;5099528;28;20185;-80
2020/12/03 13:13:59;;;;;;;14.13;6.30;;;5.40;76.40;;;;;;5103001;28;20235;-80
2020/12/03 13:16:24;;;;;;;12.60;6.35;;;5.30;77.30;;;;;;5103373;28;20476;-81